Yates City, IL

3:03 PM CDT on July 28, 2016 (GMT -0500)
Elmwood, IL | | Change Station

Elev 643 ft 40.78 °N, 89.97 °W | Updated 12 minutes ago

Clear
Clear
88.9 °F
Feels Like 96 °F
N
5.0
Wind Variable Wind from WNW
Gusts 9.0 mph

Today
High -- | Low -- °F
--% Chance of Precip.
Yesterday
High -- | Low -- °F
Precip. -- in
Pressure 29.85 in
Visibility 10.0 miles
Clouds Clear
Heat Index 96 °F
Dew Point 72 °F
Humidity 58%
Rainfall 0.00 in
Snow Depth Not available.
5:53 AM 8:19 PM
Waning Crescent, 29% visible
METAR KPIA 281954Z 33005KT 10SM CLR 31/21 A2986 RMK AO2 LTG DSNT NE-SE SLP106 T03060206
Pressure 29.85 in
Visibility 10.0 miles
Clouds Clear
Heat Index 96 °F
Dew Point 72 °F
Humidity 58%
Rainfall 0.00 in
Snow Depth Not available.
5:53 AM 8:19 PM
Waning Crescent, 29% visible
METAR KPIA 281954Z 33005KT 10SM CLR 31/21 A2986 RMK AO2 LTG DSNT NE-SE SLP106 T03060206

10-Day Weather Forecast

Almanac

Astronomy

Jul. 28, 2016 Rise Set
Actual Time
Civil Twilight
Nautical Twilight
Astronomical Twilight
Moon
Length of Visible Light
Length of Day
Tomorrow will be .
, % of the Moon is Illuminated

Today's Extremes

State Highs State Lows

Community

WunderPhotos

Upload Photos

1,928,202 photos uploaded!

WunderBlog® & News

Nearby

Air Quality

  Air Quality AQ Index Pollutant
Not available.

Snow Depth

Station Depth Elevation

Earthquake Activity

City Distance Mag. Time & Date
Minimum magnitude displayed is 2.5.

Coastal Water Temperatures

Place Temperature

Stations

Nearby Weather Stations

Station Location Temp. Windchill Dew Point Humidity Wind Precip. Elev Updated Type
                   

Watches & Warnings

There are currently no watches in effect.